createdAt,value
2022-10-01T00:00:03.951Z,98166.88
2022-10-01T00:02:40.024Z,98152.94
2022-10-01T00:05:12.709Z,98164.72
2022-10-01T00:07:45.234Z,98158.19
2022-10-01T00:10:16.338Z,98148.69
2022-10-01T00:12:49.052Z,98154.09
2022-10-01T00:15:21.055Z,98158.19
2022-10-01T00:17:50.408Z,98161.59
2022-10-01T00:20:20.083Z,98147.09
2022-10-01T00:22:49.681Z,98156.13
2022-10-01T00:25:19.067Z,98157.38
2022-10-01T00:27:49.380Z,98148.94
2022-10-01T00:30:18.838Z,98136.59
2022-10-01T00:32:48.440Z,98139.22
2022-10-01T00:35:17.910Z,98146.06
2022-10-01T00:37:52.281Z,98150.06
2022-10-01T00:40:22.538Z,98151.44
2022-10-01T00:42:52.009Z,98147.66
2022-10-01T00:45:21.421Z,98156.72
2022-10-01T00:48:01.239Z,98152.03
2022-10-01T00:50:38.202Z,98147.69
2022-10-01T00:53:12.425Z,98150.53
2022-10-01T00:55:55.298Z,98151.78
2022-10-01T00:58:28.051Z,98153.38
2022-10-01T01:00:57.737Z,98152.03
2022-10-01T01:03:27.997Z,98140.47
2022-10-01T01:05:57.536Z,98151.78
2022-10-01T01:08:26.936Z,98151.56
2022-10-01T01:11:40.169Z,98142.19
2022-10-01T01:14:58.098Z,98142.78
2022-10-01T01:17:46.249Z,98140.38
2022-10-01T01:20:46.696Z,98136.47
2022-10-01T01:23:18.820Z,98135.66
2022-10-01T01:26:04.706Z,98129.63
2022-10-01T01:29:06.750Z,98128.84
2022-10-01T01:31:46.379Z,98129.28
2022-10-01T01:34:24.553Z,98137.84
2022-10-01T01:37:06.560Z,98124.03
2022-10-01T01:39:36.749Z,98135.47
2022-10-01T01:42:27.052Z,98121.75
2022-10-01T01:45:03.583Z,98130.75
2022-10-01T01:47:35.441Z,98132.94
2022-10-01T01:50:08.281Z,98145.28
2022-10-01T01:52:38.515Z,98135.00
2022-10-01T01:55:12.790Z,98141.84
2022-10-01T01:57:44.628Z,98138.19
2022-10-01T02:00:14.429Z,98121.53
2022-10-01T02:02:51.504Z,98130.53
2022-10-01T02:05:35.299Z,98134.19
2022-10-01T02:08:47.559Z,98133.75
2022-10-01T02:11:28.460Z,98132.50
2022-10-01T02:14:28.308Z,98120.03
2022-10-01T02:17:36.596Z,98134.31
2022-10-01T02:20:21.258Z,98126.78
2022-10-01T02:23:00.906Z,98125.28
2022-10-01T02:25:58.462Z,98131.09
2022-10-01T02:28:33.725Z,98125.28
2022-10-01T02:31:04.576Z,98123.00
2022-10-01T02:33:36.729Z,98127.81
2022-10-01T02:36:11.918Z,98127.09
2022-10-01T02:38:45.615Z,98114.66
2022-10-01T02:41:23.414Z,98131.34
2022-10-01T02:43:57.907Z,98122.56
2022-10-01T02:47:10.103Z,98132.94
2022-10-01T02:49:41.563Z,98118.91
2022-10-01T02:52:16.224Z,98124.47
2022-10-01T02:54:50.760Z,98126.06
2022-10-01T02:57:23.303Z,98127.47
2022-10-01T03:00:02.077Z,98122.78
2022-10-01T03:02:33.257Z,98102.66
2022-10-01T03:05:03.945Z,98119.91
2022-10-01T03:07:35.844Z,98118.31
2022-10-01T03:10:06.798Z,98118.06
2022-10-01T03:12:37.503Z,98115.91
2022-10-01T03:15:07.706Z,98115.44
2022-10-01T03:17:38.083Z,98121.31
2022-10-01T03:20:08.895Z,98126.56
2022-10-01T03:22:38.668Z,98123.94
2022-10-01T03:25:08.825Z,98106.78
2022-10-01T03:27:38.595Z,98124.75
2022-10-01T03:30:09.033Z,98123.94
2022-10-01T03:32:39.001Z,98118.06
2022-10-01T03:35:09.118Z,98120.47
2022-10-01T03:37:38.496Z,98125.16
2022-10-01T03:40:08.644Z,98120.69
2022-10-01T03:42:38.071Z,98125.63
2022-10-01T03:45:10.807Z,98129.06
2022-10-01T03:47:40.231Z,98134.31
2022-10-01T03:50:12.562Z,98132.94
2022-10-01T03:52:42.899Z,98140.59
2022-10-01T03:55:12.423Z,98141.19
2022-10-01T03:57:42.915Z,98130.19
2022-10-01T04:00:14.154Z,98125.53
2022-10-01T04:02:43.628Z,98133.19
2022-10-01T04:05:13.106Z,98129.38
2022-10-01T04:07:43.017Z,98129.63
2022-10-01T04:10:12.505Z,98119.13
2022-10-01T04:12:41.879Z,98107.47
2022-10-01T04:15:11.622Z,98101.75
2022-10-01T04:17:45.219Z,98105.53
2022-10-01T04:20:15.831Z,98103.34
2022-10-01T04:23:10.830Z,98111.38
2022-10-01T04:25:40.948Z,98119.03
2022-10-01T04:28:13.618Z,98111.72
2022-10-01T04:30:45.899Z,98118.81
2022-10-01T04:33:17.312Z,98092.59
2022-10-01T04:35:47.077Z,98108.53
2022-10-01T04:38:17.424Z,98107.72
2022-10-01T04:40:46.773Z,98107.72
2022-10-01T04:43:16.945Z,98111.38
2022-10-01T04:45:46.353Z,98109.31
2022-10-01T04:48:15.789Z,98105.41
2022-10-01T04:50:45.739Z,98097.28
2022-10-01T04:53:15.065Z,98090.78
2022-10-01T04:55:44.462Z,98081.31
2022-10-01T04:58:13.966Z,98094.78
2022-10-01T05:00:43.351Z,98107.94
2022-10-01T05:03:12.723Z,98102.31
2022-10-01T05:06:04.820Z,98103.94
2022-10-01T05:08:34.901Z,98114.34
2022-10-01T05:11:04.284Z,98109.31
2022-10-01T05:13:33.676Z,98107.22
2022-10-01T05:16:03.882Z,98106.22
2022-10-01T05:18:33.868Z,98113.28
2022-10-01T05:21:07.848Z,98097.19
2022-10-01T05:23:37.962Z,98101.53
2022-10-01T05:26:08.121Z,98104.50
2022-10-01T05:28:38.570Z,98102.09
2022-10-01T05:31:08.060Z,98109.53
2022-10-01T05:33:38.089Z,98112.72
2022-10-01T05:36:07.800Z,98107.94
2022-10-01T05:38:37.411Z,98082.47
2022-10-01T05:41:06.981Z,98108.03
2022-10-01T05:43:36.523Z,98109.53
2022-10-01T05:46:07.910Z,98114.00
2022-10-01T05:48:38.582Z,98114.78
2022-10-01T05:51:08.463Z,98117.41
2022-10-01T05:53:38.438Z,98111.59
2022-10-01T05:56:08.821Z,98113.84
2022-10-01T05:58:41.056Z,98112.59
2022-10-01T06:01:10.429Z,98112.13
2022-10-01T06:03:39.859Z,98104.00
2022-10-01T06:06:09.184Z,98111.53
2022-10-01T06:08:38.606Z,98114.59
2022-10-01T06:11:08.411Z,98109.69
2022-10-01T06:13:37.943Z,98107.59
2022-10-01T06:16:07.499Z,98117.66
2022-10-01T06:18:37.241Z,98105.53
2022-10-01T06:21:12.106Z,98107.00
2022-10-01T06:23:44.450Z,98110.44
2022-10-01T06:26:17.944Z,98110.34
2022-10-01T06:28:51.908Z,98118.53
2022-10-01T06:31:22.675Z,98105.53
2022-10-01T06:33:52.267Z,98112.84
2022-10-01T06:36:24.061Z,98106.03
2022-10-01T06:38:53.514Z,98111.94
2022-10-01T06:41:23.169Z,98099.81
2022-10-01T06:43:52.563Z,98106.34
2022-10-01T06:46:21.958Z,98105.53
2022-10-01T06:48:52.290Z,98095.25
2022-10-01T06:51:41.655Z,98096.63
2022-10-01T06:54:12.663Z,98093.53
2022-10-01T06:56:43.487Z,98095.44
2022-10-01T06:59:18.359Z,98089.06
2022-10-01T07:01:56.322Z,98096.59
2022-10-01T07:04:26.319Z,98098.88
2022-10-01T07:07:07.746Z,98107.34
2022-10-01T07:09:38.856Z,98097.03
2022-10-01T07:12:08.333Z,98098.88
2022-10-01T07:14:39.831Z,98107.78
2022-10-01T07:17:09.194Z,98097.28
2022-10-01T07:19:38.553Z,98092.00
2022-10-01T07:22:08.694Z,98087.19
2022-10-01T07:24:38.419Z,98093.34
2022-10-01T07:27:07.814Z,98085.53
2022-10-01T07:29:48.492Z,98081.75
2022-10-01T07:32:18.035Z,98087.03
2022-10-01T07:34:47.416Z,98081.53
2022-10-01T07:37:18.516Z,98072.84
2022-10-01T07:39:47.886Z,98070.31
2022-10-01T07:42:17.348Z,98063.75
2022-10-01T07:44:46.827Z,98068.31
2022-10-01T07:47:16.250Z,98065.78
2022-10-01T07:49:45.606Z,98063.06
2022-10-01T07:52:14.965Z,98064.44
2022-10-01T07:54:44.406Z,98050.28
2022-10-01T07:57:14.634Z,98061.47
2022-10-01T07:59:47.030Z,98053.81
2022-10-01T08:02:19.178Z,98053.00
2022-10-01T08:05:09.785Z,98056.19
2022-10-01T08:07:39.227Z,98055.81
2022-10-01T08:10:09.260Z,98059.59
2022-10-01T08:12:39.700Z,98052.72
2022-10-01T08:15:16.551Z,98056.00
2022-10-01T08:17:45.911Z,98047.28
2022-10-01T08:20:16.221Z,98049.47
2022-10-01T08:22:45.579Z,98040.25
2022-10-01T08:25:15.022Z,98049.75
2022-10-01T08:27:44.378Z,98040.81
2022-10-01T08:30:13.786Z,98047.78
2022-10-01T08:32:43.307Z,98024.47
2022-10-01T08:35:12.687Z,98035.53
2022-10-01T08:37:41.995Z,98041.81
2022-10-01T08:40:11.483Z,98035.56
2022-10-01T08:42:47.660Z,98038.81
2022-10-01T08:45:29.012Z,98045.56
2022-10-01T08:48:13.579Z,98039.47
2022-10-01T08:51:03.232Z,98037.13
2022-10-01T08:53:49.784Z,98036.19
2022-10-01T08:56:34.705Z,98033.28
2022-10-01T08:59:42.092Z,98033.84
2022-10-01T09:02:39.736Z,98031.16
2022-10-01T09:05:56.638Z,98026.41
2022-10-01T09:08:49.770Z,98026.97
2022-10-01T09:11:58.778Z,98017.69
2022-10-01T09:15:00.359Z,98013.63
2022-10-01T09:17:44.910Z,98004.19
2022-10-01T09:20:29.471Z,97995.50
2022-10-01T09:23:29.599Z,97982.81
2022-10-01T09:26:00.172Z,97987.16
2022-10-01T09:28:35.648Z,98004.44
2022-10-01T09:31:27.684Z,97995.91
2022-10-01T09:34:03.254Z,98007.97
2022-10-01T09:36:43.909Z,97991.88
2022-10-01T09:39:22.289Z,97983.66
2022-10-01T09:41:52.189Z,97987.41
2022-10-01T09:44:32.150Z,97984.59
2022-10-01T09:47:01.798Z,97982.38
2022-10-01T09:49:39.939Z,97986.34
2022-10-01T09:52:28.327Z,97987.16
2022-10-01T09:55:30.419Z,97985.56
2022-10-01T09:58:23.143Z,97991.81
2022-10-01T10:00:55.247Z,97981.75
2022-10-01T10:03:30.906Z,97979.63
2022-10-01T10:06:01.905Z,97985.75
2022-10-01T10:08:40.419Z,97978.09
2022-10-01T10:11:20.086Z,97980.66
2022-10-01T10:13:54.490Z,97972.16
2022-10-01T10:16:49.157Z,97974.78
2022-10-01T10:19:26.547Z,97963.13
2022-10-01T10:22:09.158Z,97949.81
2022-10-01T10:24:41.303Z,97958.97
2022-10-01T10:27:30.523Z,97961.34
2022-10-01T10:30:18.226Z,97958.47
2022-10-01T10:32:48.304Z,97958.00
2022-10-01T10:35:26.367Z,97951.91
2022-10-01T10:37:57.692Z,97955.13
2022-10-01T10:40:44.510Z,97944.81
2022-10-01T10:43:22.971Z,97946.69
2022-10-01T10:45:56.456Z,97938.06
2022-10-01T10:48:36.593Z,97939.47
2022-10-01T10:51:06.874Z,97928.13
2022-10-01T10:53:46.825Z,97921.34
2022-10-01T10:56:34.740Z,97925.53
2022-10-01T10:59:10.411Z,97922.81
2022-10-01T11:01:43.366Z,97897.00
2022-10-01T11:04:36.916Z,97907.44
2022-10-01T11:07:07.468Z,97911.16
2022-10-01T11:10:01.141Z,97904.59
2022-10-01T11:12:51.455Z,97903.91
2022-10-01T11:15:52.987Z,97888.75
2022-10-01T11:18:46.389Z,97876.66
2022-10-01T11:21:46.936Z,97875.00
2022-10-01T11:24:46.258Z,97876.31
2022-10-01T11:28:00.326Z,97864.31
2022-10-01T11:31:06.540Z,97850.16
2022-10-01T11:34:00.182Z,97850.75
2022-10-01T11:36:37.044Z,97847.84
2022-10-01T11:39:17.483Z,97852.03
2022-10-01T11:42:01.996Z,97834.41
2022-10-01T11:44:46.848Z,97840.66
2022-10-01T11:47:25.601Z,97836.31
2022-10-01T11:50:18.747Z,97836.28
2022-10-01T11:53:09.665Z,97828.03
2022-10-01T11:56:15.273Z,97826.72
2022-10-01T11:59:08.933Z,97817.97
2022-10-01T12:01:47.857Z,97789.13
2022-10-01T12:04:27.303Z,97816.19
2022-10-01T12:07:26.966Z,97816.72
2022-10-01T12:10:17.749Z,97808.34
2022-10-01T12:12:58.299Z,97811.00
2022-10-01T12:15:53.538Z,97813.19
2022-10-01T12:19:05.348Z,97808.00
2022-10-01T12:21:44.031Z,97797.72
2022-10-01T12:24:18.388Z,97802.03
2022-10-01T12:27:23.436Z,97791.09
2022-10-01T12:30:05.936Z,97786.94
2022-10-01T12:32:53.490Z,97792.47
2022-10-01T12:35:56.489Z,97786.13
2022-10-01T12:38:36.445Z,97788.19
2022-10-01T12:41:57.359Z,97787.94
2022-10-01T12:45:03.195Z,97788.53
2022-10-01T12:47:57.746Z,97784.03
2022-10-01T12:50:38.922Z,97774.84
2022-10-01T12:53:46.406Z,97767.28
2022-10-01T12:56:45.187Z,97768.63
2022-10-01T12:59:48.392Z,97767.81
2022-10-01T13:02:53.207Z,97770.88
2022-10-01T13:05:37.627Z,97765.28
2022-10-01T13:08:34.473Z,97756.84
2022-10-01T13:11:36.093Z,97759.75
2022-10-01T13:14:13.296Z,97754.00
2022-10-01T13:16:58.684Z,97744.06
2022-10-01T13:20:05.961Z,97739.97
2022-10-01T13:22:51.440Z,97727.81
2022-10-01T13:26:04.710Z,97743.66
2022-10-01T13:29:29.966Z,97735.19
2022-10-01T13:32:25.827Z,97735.69
2022-10-01T13:34:57.680Z,97743.09
2022-10-01T13:37:37.783Z,97744.94
2022-10-01T13:40:35.777Z,97738.06
2022-10-01T13:43:23.619Z,97734.13
2022-10-01T13:45:55.456Z,97720.34
2022-10-01T13:48:32.437Z,97727.13
2022-10-01T13:51:10.854Z,97720.44
2022-10-01T13:53:43.889Z,97732.91
2022-10-01T13:56:29.873Z,97714.44
2022-10-01T13:58:59.474Z,97711.78
2022-10-01T14:01:47.390Z,97702.78
2022-10-01T14:04:26.660Z,97706.91
2022-10-01T14:07:12.338Z,97700.28
2022-10-01T14:09:51.269Z,97701.31
2022-10-01T14:12:51.239Z,97698.91
2022-10-01T14:15:45.621Z,97700.44
2022-10-01T14:18:39.341Z,97697.81
2022-10-01T14:21:32.008Z,97675.81
2022-10-01T14:24:51.965Z,97679.28
2022-10-01T14:27:47.856Z,97679.56
2022-10-01T14:30:55.417Z,97680.84
2022-10-01T14:33:55.707Z,97678.91
2022-10-01T14:36:44.023Z,97689.69
2022-10-01T14:39:19.228Z,97678.03
2022-10-01T14:41:51.842Z,97680.88
2022-10-01T14:44:37.707Z,97685.84
2022-10-01T14:47:20.547Z,97683.66
2022-10-01T14:49:51.260Z,97687.31
2022-10-01T14:52:30.130Z,97671.22
2022-10-01T14:55:08.992Z,97667.19
2022-10-01T14:57:43.155Z,97680.91
2022-10-01T15:00:20.429Z,97670.34
2022-10-01T15:03:15.737Z,97680.41
2022-10-01T15:05:51.402Z,97686.16
2022-10-01T15:08:36.619Z,97680.63
2022-10-01T15:11:18.562Z,97683.72
2022-10-01T15:13:51.295Z,97681.31
2022-10-01T15:16:27.753Z,97688.69
2022-10-01T15:19:02.442Z,97691.84
2022-10-01T15:21:55.079Z,97690.28
2022-10-01T15:24:38.391Z,97690.03
2022-10-01T15:27:14.984Z,97683.19
2022-10-01T15:29:46.499Z,97686.06
2022-10-01T15:32:22.629Z,97683.84
2022-10-01T15:35:00.286Z,97683.56
2022-10-01T15:37:36.892Z,97677.38
2022-10-01T15:40:21.005Z,97676.25
2022-10-01T15:43:08.449Z,97698.63
2022-10-01T15:45:38.021Z,97691.97
2022-10-01T15:48:29.731Z,97688.56
2022-10-01T15:51:14.226Z,97695.56
2022-10-01T15:53:45.220Z,97703.47
2022-10-01T15:56:20.499Z,97692.34
2022-10-01T15:58:58.442Z,97707.56
2022-10-01T16:01:39.196Z,97704.31
2022-10-01T16:04:15.887Z,97705.59
2022-10-01T16:06:53.236Z,97705.22
2022-10-01T16:09:27.853Z,97726.34
2022-10-01T16:12:06.876Z,97723.38
2022-10-01T16:14:42.829Z,97709.16
2022-10-01T16:17:18.603Z,97719.16
2022-10-01T16:20:18.404Z,97728.88
2022-10-01T16:22:47.850Z,97722.22
2022-10-01T16:25:22.958Z,97721.69
2022-10-01T16:28:21.536Z,97712.34
2022-10-01T16:30:51.795Z,97716.03
2022-10-01T16:33:21.502Z,97715.47
2022-10-01T16:35:50.945Z,97720.19
2022-10-01T16:38:20.847Z,97704.44
2022-10-01T16:40:50.360Z,97710.00
2022-10-01T16:43:24.901Z,97723.63
2022-10-01T16:45:57.784Z,97721.47
2022-10-01T16:48:28.140Z,97723.53
2022-10-01T16:50:59.393Z,97710.75
2022-10-01T16:53:32.056Z,97730.56
2022-10-01T16:56:01.973Z,97715.22
2022-10-01T16:58:32.373Z,97718.66
2022-10-01T17:01:06.814Z,97724.13
2022-10-01T17:03:37.392Z,97733.22
2022-10-01T17:06:07.210Z,97721.50
2022-10-01T17:08:36.739Z,97734.31
2022-10-01T17:11:10.624Z,97726.91
2022-10-01T17:13:42.374Z,97722.16
2022-10-01T17:16:11.837Z,97718.72
2022-10-01T17:18:43.733Z,97729.47
2022-10-01T17:21:14.132Z,97712.50
2022-10-01T17:23:43.834Z,97724.09
2022-10-01T17:26:13.252Z,97719.13
2022-10-01T17:28:43.081Z,97715.53
2022-10-01T17:31:17.721Z,97725.81
2022-10-01T17:33:47.670Z,97720.44
2022-10-01T17:36:17.490Z,97720.69
2022-10-01T17:38:46.986Z,97733.00
2022-10-01T17:41:16.596Z,97726.88
2022-10-01T17:43:45.986Z,97733.50
2022-10-01T17:46:15.416Z,97741.94
2022-10-01T17:48:48.155Z,97735.56
2022-10-01T17:51:17.647Z,97737.63
2022-10-01T17:53:48.211Z,97746.84
2022-10-01T17:56:19.228Z,97748.91
2022-10-01T17:58:48.808Z,97742.88
2022-10-01T18:01:22.080Z,97738.91
2022-10-01T18:03:55.788Z,97747.31
2022-10-01T18:06:25.947Z,97738.63
2022-10-01T18:08:56.532Z,97738.41
2022-10-01T18:11:28.930Z,97737.38
2022-10-01T18:13:58.953Z,97736.69
2022-10-01T18:16:28.586Z,97741.59
2022-10-01T18:21:51.209Z,97735.47
2022-10-01T18:24:20.613Z,97737.53
2022-10-01T18:26:50.973Z,97735.94
2022-10-01T18:29:27.143Z,97738.47
2022-10-01T18:32:12.772Z,97735.84
2022-10-01T18:34:59.033Z,97723.88
2022-10-01T18:37:53.086Z,97714.91
2022-10-01T18:40:34.701Z,97732.00
2022-10-01T18:43:11.217Z,97726.19
2022-10-01T18:46:12.063Z,97736.91
2022-10-01T18:49:12.464Z,97729.84
2022-10-01T18:52:07.526Z,97745.66
2022-10-01T18:55:20.841Z,97756.16
2022-10-01T18:58:44.585Z,97757.75
2022-10-01T19:01:42.752Z,97766.81
2022-10-01T19:05:20.203Z,97758.66
2022-10-01T19:08:30.924Z,97759.81
2022-10-01T19:11:18.548Z,97762.56
2022-10-01T19:14:25.244Z,97784.09
2022-10-01T19:17:33.194Z,97769.06
2022-10-01T19:20:29.522Z,97780.00
2022-10-01T19:24:00.401Z,97771.56
2022-10-01T19:26:40.558Z,97777.84
2022-10-01T19:29:25.080Z,97776.03
2022-10-01T19:32:13.320Z,97762.44
2022-10-01T19:34:45.823Z,97786.16
2022-10-01T19:37:36.835Z,97781.69
2022-10-01T19:40:35.053Z,97797.22
2022-10-01T19:43:43.398Z,97787.16
2022-10-01T19:46:51.820Z,97792.44
2022-10-01T19:49:35.932Z,97797.69
2022-10-01T19:52:21.397Z,97804.97
2022-10-01T19:55:00.396Z,97787.75
2022-10-01T19:57:34.917Z,97802.25
2022-10-01T20:00:26.230Z,97799.84
2022-10-01T20:06:07.514Z,97794.81
2022-10-01T20:08:55.657Z,97791.50
2022-10-01T20:11:50.447Z,97801.53
2022-10-01T20:14:45.659Z,97800.63
2022-10-01T20:17:46.279Z,97807.34
2022-10-01T20:21:15.599Z,97800.50
2022-10-01T20:24:38.792Z,97799.38
2022-10-01T20:27:43.711Z,97802.78
2022-10-01T20:30:21.345Z,97792.84
2022-10-01T20:33:23.979Z,97787.13
2022-10-01T20:36:41.645Z,97806.72
2022-10-01T20:39:32.415Z,97815.97
2022-10-01T20:42:09.302Z,97800.25
2022-10-01T20:44:40.308Z,97791.69
2022-10-01T20:47:25.270Z,97805.81
2022-10-01T20:50:19.087Z,97799.72
2022-10-01T20:53:09.190Z,97790.63
2022-10-01T20:55:46.146Z,97813.03
2022-10-01T20:58:31.171Z,97816.97
2022-10-01T21:01:17.780Z,97799.84
2022-10-01T21:03:57.753Z,97824.13
2022-10-01T21:07:25.620Z,97833.91
2022-10-01T21:10:16.669Z,97827.06
2022-10-01T21:13:02.693Z,97840.00
2022-10-01T21:15:49.898Z,97835.56
2022-10-01T21:18:57.435Z,97841.19
2022-10-01T21:21:35.686Z,97833.47
2022-10-01T21:25:01.243Z,97848.56
2022-10-01T21:28:05.361Z,97831.69
2022-10-01T21:31:07.350Z,97833.06
2022-10-01T21:33:52.460Z,97822.78
2022-10-01T21:36:38.570Z,97826.88
2022-10-01T21:39:26.284Z,97816.41
2022-10-01T21:42:19.613Z,97818.78
2022-10-01T21:44:57.549Z,97807.59
2022-10-01T21:47:45.094Z,97812.81
2022-10-01T21:50:35.412Z,97805.44
2022-10-01T21:53:29.051Z,97803.44
2022-10-01T21:56:29.559Z,97819.00
2022-10-01T21:59:34.967Z,97817.41
2022-10-01T22:02:04.948Z,97839.19
2022-10-01T22:04:48.624Z,97834.03
2022-10-01T22:07:37.182Z,97833.38
2022-10-01T22:10:36.420Z,97849.03
2022-10-01T22:13:33.141Z,97850.53
2022-10-01T22:16:14.594Z,97844.47
2022-10-01T22:18:51.533Z,97844.63
2022-10-01T22:21:39.273Z,97843.59
2022-10-01T22:24:19.148Z,97841.19
2022-10-01T22:27:05.748Z,97839.50
2022-10-01T22:29:45.259Z,97837.81
2022-10-01T22:32:19.562Z,97843.84
2022-10-01T22:35:03.519Z,97843.38
2022-10-01T22:37:56.736Z,97826.50
2022-10-01T22:40:45.087Z,97834.28
2022-10-01T22:43:14.962Z,97845.00
2022-10-01T22:46:00.459Z,97850.50
2022-10-01T22:49:33.690Z,97845.78
2022-10-01T22:52:34.433Z,97840.97
2022-10-01T22:55:39.625Z,97858.31
2022-10-01T22:58:30.037Z,97865.59
2022-10-01T23:01:21.307Z,97866.06
2022-10-01T23:03:59.474Z,97868.00
2022-10-01T23:06:46.667Z,97865.22
2022-10-01T23:09:47.335Z,97862.78
2022-10-01T23:12:54.187Z,97870.56
2022-10-01T23:15:52.950Z,97862.00
2022-10-01T23:18:41.056Z,97875.19
2022-10-01T23:21:19.163Z,97876.94
2022-10-01T23:24:04.434Z,97886.41
2022-10-01T23:27:06.073Z,97876.00
2022-10-01T23:30:07.944Z,97888.00
2022-10-01T23:33:06.369Z,97885.47
2022-10-01T23:36:03.049Z,97888.00
2022-10-01T23:38:32.432Z,97891.53
2022-10-01T23:41:18.069Z,97897.34
2022-10-01T23:43:52.722Z,97894.81
2022-10-01T23:46:32.926Z,97890.59
2022-10-01T23:49:26.612Z,97902.34
2022-10-01T23:52:03.589Z,97900.97
2022-10-01T23:55:22.023Z,97911.81
2022-10-01T23:58:02.344Z,97900.97
